sensor_id;sensor_type;location;lat;lon;timestamp;pressure;altitude;pressure_sealevel;temperature;humidity
55373;BME280;41249;47.838;16.490;2023-01-10T00:00:37;98324.72;;;1.26;71.34
55373;BME280;41249;47.838;16.490;2023-01-10T00:03:08;98330.59;;;1.28;71.41
55373;BME280;41249;47.838;16.490;2023-01-10T00:05:36;98321.97;;;1.26;71.65
55373;BME280;41249;47.838;16.490;2023-01-10T00:08:04;98321.56;;;1.24;71.97
55373;BME280;41249;47.838;16.490;2023-01-10T00:10:32;98321.97;;;1.26;71.51
55373;BME280;41249;47.838;16.490;2023-01-10T00:12:59;98333.63;;;1.23;72.16
55373;BME280;41249;47.838;16.490;2023-01-10T00:15:44;98351.63;;;1.24;71.92
55373;BME280;41249;47.838;16.490;2023-01-10T00:18:11;98336.72;;;1.22;72.31
55373;BME280;41249;47.838;16.490;2023-01-10T00:20:38;98337.09;;;1.20;72.50
55373;BME280;41249;47.838;16.490;2023-01-10T00:23:04;98341.34;;;1.18;72.32
55373;BME280;41249;47.838;16.490;2023-01-10T00:25:32;98351.47;;;1.17;72.02
55373;BME280;41249;47.838;16.490;2023-01-10T00:28:01;98349.97;;;1.20;72.31
55373;BME280;41249;47.838;16.490;2023-01-10T00:30:50;98345.31;;;1.20;72.44
55373;BME280;41249;47.838;16.490;2023-01-10T00:33:20;98358.50;;;1.18;72.31
55373;BME280;41249;47.838;16.490;2023-01-10T00:35:47;98347.56;;;1.18;72.42
55373;BME280;41249;47.838;16.490;2023-01-10T00:38:14;98350.31;;;1.18;72.41
55373;BME280;41249;47.838;16.490;2023-01-10T00:40:41;98368.31;;;1.19;72.86
55373;BME280;41249;47.838;16.490;2023-01-10T00:43:08;98355.78;;;1.18;72.56
55373;BME280;41249;47.838;16.490;2023-01-10T00:45:54;98359.41;;;1.22;72.16
55373;BME280;41249;47.838;16.490;2023-01-10T00:48:20;98365.94;;;1.18;72.15
55373;BME280;41249;47.838;16.490;2023-01-10T00:50:47;98360.09;;;1.19;72.41
55373;BME280;41249;47.838;16.490;2023-01-10T00:53:14;98376.38;;;1.12;72.83
55373;BME280;41249;47.838;16.490;2023-01-10T00:55:41;98377.50;;;1.11;73.10
55373;BME280;41249;47.838;16.490;2023-01-10T00:58:07;98370.03;;;1.08;73.46
55373;BME280;41249;47.838;16.490;2023-01-10T01:00:37;98372.69;;;1.05;73.38
55373;BME280;41249;47.838;16.490;2023-01-10T01:03:05;98397.19;;;1.01;73.48
55373;BME280;41249;47.838;16.490;2023-01-10T01:05:33;98402.66;;;1.01;73.21
55373;BME280;41249;47.838;16.490;2023-01-10T01:08:04;98397.19;;;1.01;73.94
55373;BME280;41249;47.838;16.490;2023-01-10T01:10:31;98399.06;;;0.97;73.82
55373;BME280;41249;47.838;16.490;2023-01-10T01:13:06;98406.81;;;0.95;74.35
55373;BME280;41249;47.838;16.490;2023-01-10T01:15:33;98402.50;;;0.94;74.05
55373;BME280;41249;47.838;16.490;2023-01-10T01:18:00;98421.09;;;0.89;74.36
55373;BME280;41249;47.838;16.490;2023-01-10T01:20:27;98417.22;;;0.90;74.86
55373;BME280;41249;47.838;16.490;2023-01-10T01:22:54;98431.97;;;0.85;75.29
55373;BME280;41249;47.838;16.490;2023-01-10T01:25:21;98429.91;;;0.82;75.01
55373;BME280;41249;47.838;16.490;2023-01-10T01:27:48;98429.91;;;0.82;74.88
55373;BME280;41249;47.838;16.490;2023-01-10T01:30:14;98428.66;;;0.79;75.71
55373;BME280;41249;47.838;16.490;2023-01-10T01:32:41;98444.97;;;0.76;75.42
55373;BME280;41249;47.838;16.490;2023-01-10T01:35:11;98432.53;;;0.78;75.13
55373;BME280;41249;47.838;16.490;2023-01-10T01:37:40;98450.34;;;0.72;75.69
55373;BME280;41249;47.838;16.490;2023-01-10T01:40:16;98443.28;;;0.71;76.11
55373;BME280;41249;47.838;16.490;2023-01-10T01:42:43;98449.56;;;0.72;75.50
55373;BME280;41249;47.838;16.490;2023-01-10T01:50:26;98457.47;;;0.61;76.58
55373;BME280;41249;47.838;16.490;2023-01-10T01:52:56;98450.88;;;0.62;76.35
55373;BME280;41249;47.838;16.490;2023-01-10T01:55:24;98459.69;;;0.56;77.16
55373;BME280;41249;47.838;16.490;2023-01-10T01:57:54;98458.09;;;0.55;77.00
55373;BME280;41249;47.838;16.490;2023-01-10T02:00:23;98452.09;;;0.49;77.66
55373;BME280;41249;47.838;16.490;2023-01-10T02:02:52;98458.38;;;0.50;77.52
55373;BME280;41249;47.838;16.490;2023-01-10T02:05:29;98454.50;;;0.51;77.08
55373;BME280;41249;47.838;16.490;2023-01-10T02:07:58;98463.81;;;0.50;77.77
55373;BME280;41249;47.838;16.490;2023-01-10T02:13:03;98471.59;;;0.48;77.48
55373;BME280;41249;47.838;16.490;2023-01-10T02:15:30;98456.78;;;0.49;78.04
55373;BME280;41249;47.838;16.490;2023-01-10T02:17:57;98469.91;;;0.43;78.19
55373;BME280;41249;47.838;16.490;2023-01-10T02:20:27;98454.22;;;0.40;78.57
55373;BME280;41249;47.838;16.490;2023-01-10T02:23:16;98461.50;;;0.36;78.85
55373;BME280;41249;47.838;16.490;2023-01-10T02:29:01;98478.78;;;0.40;78.66
55373;BME280;41249;47.838;16.490;2023-01-10T02:39:54;98474.28;;;0.32;78.17
55373;BME280;41249;47.838;16.490;2023-01-10T02:45:05;98486.00;;;0.33;78.38
55373;BME280;41249;47.838;16.490;2023-01-10T02:47:36;98473.47;;;0.32;78.47
55373;BME280;41249;47.838;16.490;2023-01-10T02:50:25;98475.09;;;0.33;78.55
55373;BME280;41249;47.838;16.490;2023-01-10T02:52:58;98472.59;;;0.28;78.35
55373;BME280;41249;47.838;16.490;2023-01-10T02:55:37;98492.97;;;0.30;78.02
55373;BME280;41249;47.838;16.490;2023-01-10T02:58:38;98485.09;;;0.29;78.26
55373;BME280;41249;47.838;16.490;2023-01-10T03:06:30;98496.25;;;0.23;78.07
55373;BME280;41249;47.838;16.490;2023-01-10T03:09:08;98495.13;;;0.25;77.86
55373;BME280;41249;47.838;16.490;2023-01-10T03:11:38;98519.25;;;0.22;78.50
55373;BME280;41249;47.838;16.490;2023-01-10T03:14:22;98510.63;;;0.20;78.17
55373;BME280;41249;47.838;16.490;2023-01-10T03:16:56;98526.91;;;0.17;79.00
55373;BME280;41249;47.838;16.490;2023-01-10T03:19:27;98511.31;;;0.17;79.08
55373;BME280;41249;47.838;16.490;2023-01-10T03:21:56;98497.06;;;0.08;80.03
55373;BME280;41249;47.838;16.490;2023-01-10T03:24:30;98498.78;;;0.01;79.79
55373;BME280;41249;47.838;16.490;2023-01-10T03:29:49;98514.81;;;0.02;79.97
55373;BME280;41249;47.838;16.490;2023-01-10T03:32:20;98522.19;;;0.02;80.49
55373;BME280;41249;47.838;16.490;2023-01-10T03:34:48;98528.81;;;0.01;80.48
55373;BME280;41249;47.838;16.490;2023-01-10T03:39:50;98543.38;;;-0.07;80.95
55373;BME280;41249;47.838;16.490;2023-01-10T03:42:28;98544.41;;;-0.12;81.22
55373;BME280;41249;47.838;16.490;2023-01-10T03:45:22;98562.25;;;-0.14;81.73
55373;BME280;41249;47.838;16.490;2023-01-10T03:47:52;98529.41;;;-0.18;81.64
55373;BME280;41249;47.838;16.490;2023-01-10T03:50:22;98562.50;;;-0.19;82.01
55373;BME280;41249;47.838;16.490;2023-01-10T03:52:49;98549.19;;;-0.21;81.71
55373;BME280;41249;47.838;16.490;2023-01-10T03:55:26;98557.81;;;-0.19;81.62
55373;BME280;41249;47.838;16.490;2023-01-10T03:57:53;98562.16;;;-0.18;81.52
55373;BME280;41249;47.838;16.490;2023-01-10T04:00:20;98584.66;;;-0.21;81.75
55373;BME280;41249;47.838;16.490;2023-01-10T04:02:47;98580.22;;;-0.25;82.41
55373;BME280;41249;47.838;16.490;2023-01-10T04:05:14;98576.63;;;-0.29;82.76
55373;BME280;41249;47.838;16.490;2023-01-10T04:07:40;98586.72;;;-0.30;82.08
55373;BME280;41249;47.838;16.490;2023-01-10T04:10:07;98640.00;;;-0.32;83.33
55373;BME280;41249;47.838;16.490;2023-01-10T04:12:34;98605.59;;;-0.37;83.45
55373;BME280;41249;47.838;16.490;2023-01-10T04:15:01;98608.31;;;-0.37;82.13
55373;BME280;41249;47.838;16.490;2023-01-10T04:17:28;98641.72;;;-0.40;83.13
55373;BME280;41249;47.838;16.490;2023-01-10T04:19:55;98628.97;;;-0.36;82.57
55373;BME280;41249;47.838;16.490;2023-01-10T04:22:21;98635.91;;;-0.38;83.12
55373;BME280;41249;47.838;16.490;2023-01-10T04:24:48;98641.28;;;-0.42;82.96
55373;BME280;41249;47.838;16.490;2023-01-10T04:27:17;98631.03;;;-0.45;83.24
55373;BME280;41249;47.838;16.490;2023-01-10T04:29:44;98632.88;;;-0.49;83.55
55373;BME280;41249;47.838;16.490;2023-01-10T04:32:10;98641.38;;;-0.51;84.16
55373;BME280;41249;47.838;16.490;2023-01-10T04:34:37;98631.03;;;-0.57;83.79
55373;BME280;41249;47.838;16.490;2023-01-10T04:37:04;98652.84;;;-0.57;83.76
55373;BME280;41249;47.838;16.490;2023-01-10T04:39:31;98654.66;;;-0.61;84.57
55373;BME280;41249;47.838;16.490;2023-01-10T04:41:57;98655.91;;;-0.59;84.58
55373;BME280;41249;47.838;16.490;2023-01-10T04:44:24;98646.00;;;-0.63;84.90
55373;BME280;41249;47.838;16.490;2023-01-10T04:46:51;98667.38;;;-0.65;84.85
55373;BME280;41249;47.838;16.490;2023-01-10T04:49:17;98654.41;;;-0.68;84.37
55373;BME280;41249;47.838;16.490;2023-01-10T04:51:44;98668.03;;;-0.68;84.96
55373;BME280;41249;47.838;16.490;2023-01-10T04:54:10;98678.94;;;-0.68;84.94
55373;BME280;41249;47.838;16.490;2023-01-10T04:56:37;98678.63;;;-0.67;85.67
55373;BME280;41249;47.838;16.490;2023-01-10T04:59:03;98682.94;;;-0.66;84.35
55373;BME280;41249;47.838;16.490;2023-01-10T05:01:31;98690.78;;;-0.64;84.39
55373;BME280;41249;47.838;16.490;2023-01-10T05:04:00;98695.88;;;-0.63;84.72
55373;BME280;41249;47.838;16.490;2023-01-10T05:06:28;98684.19;;;-0.63;84.62
55373;BME280;41249;47.838;16.490;2023-01-10T05:08:55;98703.25;;;-0.63;85.13
55373;BME280;41249;47.838;16.490;2023-01-10T05:11:22;98701.19;;;-0.66;85.53
55373;BME280;41249;47.838;16.490;2023-01-10T05:13:49;98704.41;;;-0.64;85.11
55373;BME280;41249;47.838;16.490;2023-01-10T05:16:16;98721.22;;;-0.62;85.21
55373;BME280;41249;47.838;16.490;2023-01-10T05:18:42;98713.03;;;-0.62;85.11
55373;BME280;41249;47.838;16.490;2023-01-10T05:21:11;98725.06;;;-0.63;84.92
55373;BME280;41249;47.838;16.490;2023-01-10T05:23:38;98723.81;;;-0.66;85.09
55373;BME280;41249;47.838;16.490;2023-01-10T05:26:13;98735.50;;;-0.65;85.21
55373;BME280;41249;47.838;16.490;2023-01-10T05:28:40;98725.28;;;-0.68;85.77
55373;BME280;41249;47.838;16.490;2023-01-10T05:31:10;98719.81;;;-0.68;85.42
55373;BME280;41249;47.838;16.490;2023-01-10T05:33:37;98738.44;;;-0.70;85.37
55373;BME280;41249;47.838;16.490;2023-01-10T05:36:05;98730.28;;;-0.70;84.97
55373;BME280;41249;47.838;16.490;2023-01-10T05:38:32;98732.09;;;-0.74;85.29
55373;BME280;41249;47.838;16.490;2023-01-10T05:40:59;98734.81;;;-0.74;85.98
55373;BME280;41249;47.838;16.490;2023-01-10T05:43:27;98735.28;;;-0.72;85.70
55373;BME280;41249;47.838;16.490;2023-01-10T05:45:54;98749.81;;;-0.68;85.78
55373;BME280;41249;47.838;16.490;2023-01-10T05:48:21;98749.81;;;-0.68;86.10
55373;BME280;41249;47.838;16.490;2023-01-10T05:50:49;98757.31;;;-0.65;85.70
55373;BME280;41249;47.838;16.490;2023-01-10T05:53:16;98765.50;;;-0.65;85.63
55373;BME280;41249;47.838;16.490;2023-01-10T05:55:43;98765.03;;;-0.67;86.00
55373;BME280;41249;47.838;16.490;2023-01-10T05:58:10;98769.03;;;-0.65;85.94
55373;BME280;41249;47.838;16.490;2023-01-10T06:00:37;98773.00;;;-0.62;85.75
55373;BME280;41249;47.838;16.490;2023-01-10T06:03:06;98775.38;;;-0.61;85.43
55373;BME280;41249;47.838;16.490;2023-01-10T06:05:32;98790.63;;;-0.60;85.28
55373;BME280;41249;47.838;16.490;2023-01-10T06:07:59;98783.09;;;-0.63;85.34
55373;BME280;41249;47.838;16.490;2023-01-10T06:10:26;98807.28;;;-0.61;85.69
55373;BME280;41249;47.838;16.490;2023-01-10T06:12:52;98795.13;;;-0.64;85.29
55373;BME280;41249;47.838;16.490;2023-01-10T06:15:19;98801.38;;;-0.63;85.16
55373;BME280;41249;47.838;16.490;2023-01-10T06:17:46;98796.38;;;-0.61;85.30
55373;BME280;41249;47.838;16.490;2023-01-10T06:20:12;98815.34;;;-0.65;85.70
55373;BME280;41249;47.838;16.490;2023-01-10T06:22:40;98831.38;;;-0.63;85.48
55373;BME280;41249;47.838;16.490;2023-01-10T06:25:13;98830.25;;;-0.62;85.79
55373;BME280;41249;47.838;16.490;2023-01-10T06:27:41;98831.16;;;-0.58;85.16
55373;BME280;41249;47.838;16.490;2023-01-10T06:30:10;98830.84;;;-0.57;85.48
55373;BME280;41249;47.838;16.490;2023-01-10T06:32:38;98826.84;;;-0.59;85.49
55373;BME280;41249;47.838;16.490;2023-01-10T06:35:06;98845.94;;;-0.59;85.78
55373;BME280;41249;47.838;16.490;2023-01-10T06:37:32;98842.66;;;-0.53;85.14
55373;BME280;41249;47.838;16.490;2023-01-10T06:39:59;98850.03;;;-0.53;85.90
55373;BME280;41249;47.838;16.490;2023-01-10T06:42:25;98855.16;;;-0.52;85.68
55373;BME280;41249;47.838;16.490;2023-01-10T06:44:52;98848.09;;;-0.53;85.86
55373;BME280;41249;47.838;16.490;2023-01-10T06:47:19;98861.53;;;-0.48;84.94
55373;BME280;41249;47.838;16.490;2023-01-10T06:49:45;98875.97;;;-0.47;85.53
55373;BME280;41249;47.838;16.490;2023-01-10T06:52:12;98877.09;;;-0.48;85.66
55373;BME280;41249;47.838;16.490;2023-01-10T06:54:38;98866.19;;;-0.48;85.39
55373;BME280;41249;47.838;16.490;2023-01-10T06:57:06;98878.69;;;-0.47;84.93
55373;BME280;41249;47.838;16.490;2023-01-10T06:59:33;98878.03;;;-0.44;84.92
55373;BME280;41249;47.838;16.490;2023-01-10T07:02:00;98881.69;;;-0.40;84.64
55373;BME280;41249;47.838;16.490;2023-01-10T07:04:26;98896.09;;;-0.39;84.77
55373;BME280;41249;47.838;16.490;2023-01-10T07:06:53;98892.22;;;-0.38;84.63
55373;BME280;41249;47.838;16.490;2023-01-10T07:09:19;98900.91;;;-0.36;85.42
55373;BME280;41249;47.838;16.490;2023-01-10T07:11:46;98900.75;;;-0.40;84.97
55373;BME280;41249;47.838;16.490;2023-01-10T07:14:12;98900.75;;;-0.40;85.01
55373;BME280;41249;47.838;16.490;2023-01-10T07:16:39;98903.28;;;-0.35;85.06
55373;BME280;41249;47.838;16.490;2023-01-10T07:19:05;98907.28;;;-0.32;84.33
55373;BME280;41249;47.838;16.490;2023-01-10T07:21:32;98912.72;;;-0.32;84.36
55373;BME280;41249;47.838;16.490;2023-01-10T07:23:59;98919.09;;;-0.28;85.03
55373;BME280;41249;47.838;16.490;2023-01-10T07:26:28;98923.44;;;-0.27;84.38
55373;BME280;41249;47.838;16.490;2023-01-10T07:28:55;98927.88;;;-0.23;84.19
55373;BME280;41249;47.838;16.490;2023-01-10T07:31:21;98924.03;;;-0.22;83.87
55373;BME280;41249;47.838;16.490;2023-01-10T07:33:50;98936.50;;;-0.21;84.20
55373;BME280;41249;47.838;16.490;2023-01-10T07:36:18;98946.75;;;-0.18;83.94
55373;BME280;41249;47.838;16.490;2023-01-10T07:38:44;98948.38;;;-0.17;83.80
55373;BME280;41249;47.838;16.490;2023-01-10T07:41:11;98946.91;;;-0.14;84.14
55373;BME280;41249;47.838;16.490;2023-01-10T07:43:37;98942.34;;;-0.10;83.37
55373;BME280;41249;47.838;16.490;2023-01-10T07:46:05;98969.28;;;-0.09;83.54
55373;BME280;41249;47.838;16.490;2023-01-10T07:48:38;98978.88;;;-0.03;83.99
55373;BME280;41249;47.838;16.490;2023-01-10T07:51:07;98971.34;;;-0.06;83.10
55373;BME280;41249;47.838;16.490;2023-01-10T07:53:34;98988.78;;;0.02;82.72
55373;BME280;41249;47.838;16.490;2023-01-10T07:56:01;98987.31;;;0.04;82.30
55373;BME280;41249;47.838;16.490;2023-01-10T07:58:29;98988.72;;;0.10;82.46
55373;BME280;41249;47.838;16.490;2023-01-10T08:01:01;99009.06;;;0.13;82.78
55373;BME280;41249;47.838;16.490;2023-01-10T08:03:28;99034.44;;;0.13;82.60
55373;BME280;41249;47.838;16.490;2023-01-10T08:06:00;99005.19;;;0.14;82.10
55373;BME280;41249;47.838;16.490;2023-01-10T08:08:28;99014.31;;;0.18;82.22
55373;BME280;41249;47.838;16.490;2023-01-10T08:10:55;99030.16;;;0.25;81.87
55373;BME280;41249;47.838;16.490;2023-01-10T08:13:22;99031.41;;;0.27;82.09
55373;BME280;41249;47.838;16.490;2023-01-10T08:15:48;99032.88;;;0.25;81.78
55373;BME280;41249;47.838;16.490;2023-01-10T08:18:19;99026.41;;;0.29;81.93
55373;BME280;41249;47.838;16.490;2023-01-10T08:20:48;99049.06;;;0.30;81.57
55373;BME280;41249;47.838;16.490;2023-01-10T08:23:16;99045.97;;;0.31;81.40
55373;BME280;41249;47.838;16.490;2023-01-10T08:25:42;99059.50;;;0.28;81.78
55373;BME280;41249;47.838;16.490;2023-01-10T08:28:09;99068.50;;;0.28;81.97
55373;BME280;41249;47.838;16.490;2023-01-10T08:30:36;99070.22;;;0.33;81.83
55373;BME280;41249;47.838;16.490;2023-01-10T08:33:05;99098.19;;;0.30;81.43
55373;BME280;41249;47.838;16.490;2023-01-10T08:35:39;99081.81;;;0.30;81.44
55373;BME280;41249;47.838;16.490;2023-01-10T08:38:07;99081.94;;;0.33;81.75
55373;BME280;41249;47.838;16.490;2023-01-10T08:40:34;99092.97;;;0.37;81.29
55373;BME280;41249;47.838;16.490;2023-01-10T08:43:04;99107.09;;;0.39;81.08
55373;BME280;41249;47.838;16.490;2023-01-10T08:45:32;99111.44;;;0.40;81.00
55373;BME280;41249;47.838;16.490;2023-01-10T08:47:58;99114.31;;;0.43;81.05
55373;BME280;41249;47.838;16.490;2023-01-10T08:50:25;99110.56;;;0.48;81.02
55373;BME280;41249;47.838;16.490;2023-01-10T08:52:52;99127.75;;;0.48;80.17
55373;BME280;41249;47.838;16.490;2023-01-10T08:55:18;99115.22;;;0.47;80.43
55373;BME280;41249;47.838;16.490;2023-01-10T08:57:45;99118.09;;;0.51;80.04
55373;BME280;41249;47.838;16.490;2023-01-10T09:00:12;99116.28;;;0.55;80.04
55373;BME280;41249;47.838;16.490;2023-01-10T09:02:39;99124.25;;;0.60;80.13
55373;BME280;41249;47.838;16.490;2023-01-10T09:05:06;99118.78;;;0.60;79.79
55373;BME280;41249;47.838;16.490;2023-01-10T09:07:51;99129.84;;;0.63;79.65
55373;BME280;41249;47.838;16.490;2023-01-10T09:10:18;99132.34;;;0.68;79.02
55373;BME280;41249;47.838;16.490;2023-01-10T09:12:44;99154.69;;;0.70;79.49
55373;BME280;41249;47.838;16.490;2023-01-10T09:15:22;99152.06;;;0.74;79.77
55373;BME280;41249;47.838;16.490;2023-01-10T09:17:48;99153.03;;;0.78;79.34
55373;BME280;41249;47.838;16.490;2023-01-10T09:20:15;99160.88;;;0.79;78.58
55373;BME280;41249;47.838;16.490;2023-01-10T09:22:42;99162.59;;;0.84;78.84
55373;BME280;41249;47.838;16.490;2023-01-10T09:25:08;99170.59;;;0.89;78.51
55373;BME280;41249;47.838;16.490;2023-01-10T09:27:36;99179.59;;;0.90;78.13
55373;BME280;41249;47.838;16.490;2023-01-10T09:30:03;99173.13;;;0.94;77.51
55373;BME280;41249;47.838;16.490;2023-01-10T09:32:30;99185.66;;;0.95;77.86
55373;BME280;41249;47.838;16.490;2023-01-10T09:34:56;99186.47;;;0.96;77.54
55373;BME280;41249;47.838;16.490;2023-01-10T09:37:23;99191.50;;;1.06;77.50
55373;BME280;41249;47.838;16.490;2023-01-10T09:39:49;99205.97;;;1.06;76.84
55373;BME280;41249;47.838;16.490;2023-01-10T09:47:30;99215.22;;;1.14;76.34
55373;BME280;41249;47.838;16.490;2023-01-10T09:52:50;99225.81;;;1.15;75.20
55373;BME280;41249;47.838;16.490;2023-01-10T09:55:44;99227.53;;;1.20;74.61
55373;BME280;41249;47.838;16.490;2023-01-10T09:58:14;99217.88;;;1.22;74.75
55373;BME280;41249;47.838;16.490;2023-01-10T10:00:48;99246.38;;;1.33;75.04
55373;BME280;41249;47.838;16.490;2023-01-10T10:03:43;99220.50;;;1.31;74.87
55373;BME280;41249;47.838;16.490;2023-01-10T10:06:12;99223.72;;;1.33;74.93
55373;BME280;41249;47.838;16.490;2023-01-10T10:08:44;99219.97;;;1.37;74.47
55373;BME280;41249;47.838;16.490;2023-01-10T10:24:40;99216.56;;;1.53;72.30
55373;BME280;41249;47.838;16.490;2023-01-10T10:27:23;99222.59;;;1.58;73.08
55373;BME280;41249;47.838;16.490;2023-01-10T10:35:01;99227.53;;;1.65;71.41
55373;BME280;41249;47.838;16.490;2023-01-10T10:37:40;99235.84;;;1.68;72.07
55373;BME280;41249;47.838;16.490;2023-01-10T10:40:17;99239.06;;;1.70;70.75
55373;BME280;41249;47.838;16.490;2023-01-10T10:42:47;99239.06;;;1.70;72.39
55373;BME280;41249;47.838;16.490;2023-01-10T10:48:23;99221.72;;;1.78;71.83
55373;BME280;41249;47.838;16.490;2023-01-10T10:53:22;99235.16;;;1.71;71.20
55373;BME280;41249;47.838;16.490;2023-01-10T10:55:49;99240.31;;;1.73;72.88
55373;BME280;41249;47.838;16.490;2023-01-10T10:58:17;99251.81;;;1.78;72.95
55373;BME280;41249;47.838;16.490;2023-01-10T11:00:44;99239.06;;;1.82;72.38
55373;BME280;41249;47.838;16.490;2023-01-10T11:05:51;99242.34;;;1.76;70.50
55373;BME280;41249;47.838;16.490;2023-01-10T11:08:19;99251.47;;;1.68;70.81
55373;BME280;41249;47.838;16.490;2023-01-10T11:10:51;99252.38;;;1.72;70.92
55373;BME280;41249;47.838;16.490;2023-01-10T11:16:03;99251.72;;;1.75;70.29
55373;BME280;41249;47.838;16.490;2023-01-10T11:18:31;99270.22;;;1.90;71.19
55373;BME280;41249;47.838;16.490;2023-01-10T11:21:10;99254.00;;;1.85;69.53
55373;BME280;41249;47.838;16.490;2023-01-10T11:23:52;99245.13;;;1.88;68.85
55373;BME280;41249;47.838;16.490;2023-01-10T11:26:45;99258.56;;;1.93;69.98
55373;BME280;41249;47.838;16.490;2023-01-10T11:31:55;99260.28;;;1.97;70.17
55373;BME280;41249;47.838;16.490;2023-01-10T11:34:29;99251.13;;;2.05;69.16
55373;BME280;41249;47.838;16.490;2023-01-10T11:36:57;99258.22;;;2.06;70.45
55373;BME280;41249;47.838;16.490;2023-01-10T11:39:26;99266.00;;;2.04;69.78
55373;BME280;41249;47.838;16.490;2023-01-10T11:41:53;99256.50;;;2.14;68.96
55373;BME280;41249;47.838;16.490;2023-01-10T11:44:23;99257.91;;;2.20;69.98
55373;BME280;41249;47.838;16.490;2023-01-10T11:46:54;99255.03;;;2.17;69.42
55373;BME280;41249;47.838;16.490;2023-01-10T11:49:36;99257.78;;;2.17;69.40
55373;BME280;41249;47.838;16.490;2023-01-10T11:52:18;99259.69;;;2.16;69.60
55373;BME280;41249;47.838;16.490;2023-01-10T11:54:46;99278.19;;;2.19;69.66
55373;BME280;41249;47.838;16.490;2023-01-10T11:57:16;99266.22;;;2.11;68.07
55373;BME280;41249;47.838;16.490;2023-01-10T12:00:13;99269.31;;;2.10;68.22
55373;BME280;41249;47.838;16.490;2023-01-10T12:02:42;99279.09;;;2.11;68.83
55373;BME280;41249;47.838;16.490;2023-01-10T12:05:20;99286.28;;;2.15;69.03
55373;BME280;41249;47.838;16.490;2023-01-10T12:07:59;99284.94;;;2.22;67.30
55373;BME280;41249;47.838;16.490;2023-01-10T12:10:32;99303.28;;;2.21;67.97
55373;BME280;41249;47.838;16.490;2023-01-10T12:13:14;99281.06;;;2.23;68.82
55373;BME280;41249;47.838;16.490;2023-01-10T12:15:41;99284.56;;;2.23;68.55
55373;BME280;41249;47.838;16.490;2023-01-10T12:18:09;99292.56;;;2.28;68.26
55373;BME280;41249;47.838;16.490;2023-01-10T12:20:55;99297.72;;;2.18;68.18
55373;BME280;41249;47.838;16.490;2023-01-10T12:23:24;99289.81;;;2.16;68.05
55373;BME280;41249;47.838;16.490;2023-01-10T12:25:51;99299.66;;;2.17;68.41
55373;BME280;41249;47.838;16.490;2023-01-10T12:28:36;99312.75;;;2.24;67.46
55373;BME280;41249;47.838;16.490;2023-01-10T12:31:06;99306.47;;;2.23;67.94
55373;BME280;41249;47.838;16.490;2023-01-10T12:33:44;99306.03;;;2.21;68.14
55373;BME280;41249;47.838;16.490;2023-01-10T12:41:51;99305.00;;;2.26;67.60
55373;BME280;41249;47.838;16.490;2023-01-10T12:44:42;99313.13;;;2.22;66.92
55373;BME280;41249;47.838;16.490;2023-01-10T12:47:29;99303.28;;;2.21;66.21
55373;BME280;41249;47.838;16.490;2023-01-10T12:50:13;99291.44;;;2.17;67.01
55373;BME280;41249;47.838;16.490;2023-01-10T12:52:53;99312.41;;;2.13;65.80
55373;BME280;41249;47.838;16.490;2023-01-10T12:55:27;99315.84;;;2.10;64.52
55373;BME280;41249;47.838;16.490;2023-01-10T12:57:57;99323.25;;;2.09;65.46
55373;BME280;41249;47.838;16.490;2023-01-10T13:00:28;99334.31;;;2.13;66.10
55373;BME280;41249;47.838;16.490;2023-01-10T13:03:12;99342.88;;;2.11;65.37
55373;BME280;41249;47.838;16.490;2023-01-10T13:05:40;99332.38;;;2.13;65.75
55373;BME280;41249;47.838;16.490;2023-01-10T13:08:12;99341.41;;;2.14;63.55
55373;BME280;41249;47.838;16.490;2023-01-10T13:10:42;99335.25;;;2.17;63.58
55373;BME280;41249;47.838;16.490;2023-01-10T13:15:42;99362.28;;;2.19;64.00
55373;BME280;41249;47.838;16.490;2023-01-10T13:18:29;99337.31;;;2.20;64.17
55373;BME280;41249;47.838;16.490;2023-01-10T13:21:10;99362.19;;;2.15;63.33
55373;BME280;41249;47.838;16.490;2023-01-10T13:23:51;99358.97;;;2.13;63.55
55373;BME280;41249;47.838;16.490;2023-01-10T13:26:18;99361.38;;;2.14;62.47
55373;BME280;41249;47.838;16.490;2023-01-10T13:28:57;99359.44;;;2.15;63.05
55373;BME280;41249;47.838;16.490;2023-01-10T13:31:28;99371.53;;;2.14;60.97
55373;BME280;41249;47.838;16.490;2023-01-10T13:36:30;99377.47;;;2.16;63.90
55373;BME280;41249;47.838;16.490;2023-01-10T13:39:03;99382.03;;;2.12;61.54
55373;BME280;41249;47.838;16.490;2023-01-10T13:52:52;99396.03;;;2.10;63.76
55373;BME280;41249;47.838;16.490;2023-01-10T13:56:01;99427.09;;;2.14;61.70
55373;BME280;41249;47.838;16.490;2023-01-10T14:06:18;99428.38;;;2.29;59.25
55373;BME280;41249;47.838;16.490;2023-01-10T14:08:53;99430.44;;;2.32;59.67
55373;BME280;41249;47.838;16.490;2023-01-10T14:14:25;99441.41;;;2.32;60.32
55373;BME280;41249;47.838;16.490;2023-01-10T14:17:24;99438.22;;;2.30;60.30
55373;BME280;41249;47.838;16.490;2023-01-10T14:20:00;99443.69;;;2.30;61.50
55373;BME280;41249;47.838;16.490;2023-01-10T14:22:30;99449.72;;;2.24;62.13
55373;BME280;41249;47.838;16.490;2023-01-10T14:25:04;99464.41;;;2.19;63.20
55373;BME280;41249;47.838;16.490;2023-01-10T14:27:41;99450.94;;;2.14;63.89
55373;BME280;41249;47.838;16.490;2023-01-10T14:30:15;99452.75;;;2.10;64.36
55373;BME280;41249;47.838;16.490;2023-01-10T14:32:46;99459.03;;;2.10;64.73
55373;BME280;41249;47.838;16.490;2023-01-10T14:35:20;99456.63;;;2.09;64.81
55373;BME280;41249;47.838;16.490;2023-01-10T14:37:56;99454.56;;;2.06;65.16
55373;BME280;41249;47.838;16.490;2023-01-10T14:43:03;99466.41;;;1.98;65.09
55373;BME280;41249;47.838;16.490;2023-01-10T14:45:37;99472.88;;;1.93;65.09
55373;BME280;41249;47.838;16.490;2023-01-10T14:48:30;99462.34;;;1.83;64.60
55373;BME280;41249;47.838;16.490;2023-01-10T14:53:33;99473.97;;;1.80;65.58
55373;BME280;41249;47.838;16.490;2023-01-10T14:56:00;99472.94;;;1.73;65.65
55373;BME280;41249;47.838;16.490;2023-01-10T14:58:27;99484.53;;;1.70;66.07
55373;BME280;41249;47.838;16.490;2023-01-10T15:00:54;99491.72;;;1.74;66.44
55373;BME280;41249;47.838;16.490;2023-01-10T15:03:23;99491.59;;;1.71;66.46
55373;BME280;41249;47.838;16.490;2023-01-10T15:05:56;99496.94;;;1.67;67.14